X

Important NEWS



New Hub Active

Miami is our new hub! Old members can request transfer via hr@dlxairways.net

Thank you very much and have nice flight.


Deluxe Airways.

X

Tours



Hello again, we created one nice test tour for all pilots to attend. also this is ment to be testing of our tour system

Available Tours

If you find some issues please inform us.

Thank you very much and have nice flight.


Deluxe Airways.

 METAR AND TAF INFORMATION
ArrayMETAR FOR EDDF
105089746 7 EDDF 160450Z 21007KT 9999 -RA FEW017 15/14 Q1020 NOSIG EDDF 2019-06-16T04:50:00Z 50.05 8.6 15.0 14.0 210 7 6.21 30.11811 TRUE -RA VFR METAR 113.0 EDDF 160420Z 24009KT 9999 -RA FEW023 BKN042 15/14 Q1019 NOSIG EDDF 2019-06-16T04:20:00Z 50.05 8.6 15.0 14.0 240 9 6.21 30.088583 TRUE -RA VFR METAR 113.0 EDDF 160350Z 24012KT 9999 -RA BKN048 16/13 Q1019 NOSIG EDDF 2019-06-16T03:50:00Z 50.05 8.6 16.0 13.0 240 12 6.21 30.088583 TRUE -RA VFR METAR 113.0 EDDF 160320Z 22012KT 9999 -RA BKN045 17/12 Q1019 NOSIG EDDF 2019-06-16T03:20:00Z 50.05 8.6 17.0 12.0 220 12 6.21 30.088583 TRUE -RA VFR METAR 113.0

 AIRPORT MAP

 RUNWAY INFORMATION
Runway 07C Runway length 13123 ft Runway width 197 ft
Runway elevation 329 ft Runway displaced threshold 0 ft Runway heading 70
Runway 25C Runway length 13123 ft Runway width 197 ft
Runway elevation 364 ft Runway displaced threshold 0 ft Runway heading 250
Runway 07L Runway length 9186 ft Runway width 148 ft
Runway elevation 305 ft Runway displaced threshold 0 ft Runway heading 70
Runway 25R Runway length 9186 ft Runway width 148 ft
Runway elevation 353 ft Runway displaced threshold 0 ft Runway heading 250
Runway 07R Runway length 13123 ft Runway width 148 ft
Runway elevation 328 ft Runway displaced threshold 0 ft Runway heading 70
Runway 25L Runway length 13123 ft Runway width 148 ft
Runway elevation 362 ft Runway displaced threshold 0 ft Runway heading 250
Runway 18 Runway length 13123 ft Runway width 148 ft
Runway elevation 326 ft Runway displaced threshold 0 ft Runway heading 180
Runway 36 Runway length 13123 ft Runway width 148 ft
Runway elevation 316 ft Runway displaced threshold 0 ft Runway heading 360

 AIRPORT FREQUENCIES
Type A/D Name LANGEN RAD Frequency 118.45 MHZ
Type A/D Name LANGEN RAD Frequency 127.275 MHZ
Type AFIS Name LANGEN INF Frequency 119.15 MHZ
Type ATIS Name ATIS Frequency 118.025 MHZ
Type CLD Name DELIVERY Frequency 121.9 MHZ
Type DIR Name DIR Frequency 124.2 MHZ
Type GND Name GND Frequency 121.8 MHZ
Type RMP Name APN Frequency 121.7 MHZ
Type TWR Name TWR Frequency 119.9 MHZ

 AIRPORT NEAR NAVIGATION AIDS
Type VORTAC Name Frankfurt Frequency 114200 KHZ
Type NDB Name Frankfurt Frequency 297 KHZ
Type DME Name Frankfurt Frequency 115900 KHZ
Type NDB Name Frankfurt Frequency 382 KHZ



Powered by Virtual Airlines Manager [v2.6.2]

Template code change by DeluxeAir